Time;durP1;ratioP1;P1;durP2;ratioP2;P2;SDS_P1;SDS_P2;PMS_P1;PMS_P2;Temp;Humidity;BMP_temperature;BMP_pressure;BME280_temperature;BME280_humidity;BME280_pressure;Samples;Min_cycle;Max_cycle;Signal;HPM_P1;HPM_P2
2022/02/21 00:01:35;;;;;;;1.40;0.40;;;10.20;93.70;;;;;;6180934;28;20047;-81
2022/02/21 00:04:37;;;;;;;1.58;0.40;;;10.10;93.20;;;;;;6180735;28;20492;-81
2022/02/21 00:07:38;;;;;;;2.83;0.47;;;10.00;94.10;;;;;;6180547;28;20057;-82
2022/02/21 00:10:40;;;;;;;1.80;0.40;;;9.90;94.80;;;;;;6180068;28;20190;-80
2022/02/21 00:13:42;;;;;;;1.30;0.30;;;9.80;95.10;;;;;;6179368;28;20509;-81
2022/02/21 00:16:45;;;;;;;1.50;0.40;;;9.80;95.10;;;;;;6180146;28;20047;-81
2022/02/21 00:19:47;;;;;;;2.45;0.50;;;9.70;95.10;;;;;;6180095;28;20419;-81
2022/02/21 00:22:49;;;;;;;1.60;0.65;;;9.70;95.30;;;;;;6183507;28;20050;-81
2022/02/21 00:25:50;;;;;;;7.53;0.95;;;9.70;95.60;;;;;;6180205;28;20050;-82
2022/02/21 00:28:53;;;;;;;5.90;0.40;;;9.60;95.90;;;;;;6180859;28;20053;-82
2022/02/21 00:31:56;;;;;;;5.15;1.23;;;9.60;96.40;;;;;;6180256;28;20528;-81
2022/02/21 00:34:58;;;;;;;7.68;0.55;;;9.60;96.20;;;;;;6179427;28;20156;-82
2022/02/21 00:37:59;;;;;;;3.53;1.15;;;9.60;96.20;;;;;;6180461;28;20043;-82
2022/02/21 00:41:03;;;;;;;2.63;0.55;;;9.60;96.50;;;;;;6180848;28;20050;-80
2022/02/21 00:44:06;;;;;;;4.47;0.80;;;9.60;96.30;;;;;;6180530;28;20103;-81
2022/02/21 00:47:09;;;;;;;4.05;0.60;;;9.70;96.40;;;;;;6175722;28;20514;-81
2022/02/21 00:50:11;;;;;;;4.80;0.65;;;9.60;96.70;;;;;;6179276;28;20075;-80
2022/02/21 00:53:13;;;;;;;4.85;1.13;;;9.60;97.10;;;;;;6180144;28;20051;-81
2022/02/21 00:56:15;;;;;;;2.22;0.85;;;9.70;97.30;;;;;;6179800;28;20051;-81
2022/02/21 00:59:17;;;;;;;2.80;0.55;;;9.70;97.70;;;;;;6179760;28;20057;-80
2022/02/21 01:02:20;;;;;;;3.72;1.13;;;9.70;97.60;;;;;;6180138;28;20054;-81
2022/02/21 01:05:22;;;;;;;7.50;1.27;;;9.60;97.80;;;;;;6180515;28;20141;-81
2022/02/21 01:08:24;;;;;;;4.22;1.05;;;9.70;97.90;;;;;;6180606;28;20572;-81
2022/02/21 01:11:30;;;;;;;10.52;1.10;;;9.60;98.10;;;;;;6180269;28;20524;-82
2022/02/21 01:14:32;;;;;;;1.55;0.75;;;9.70;98.00;;;;;;6180261;28;20054;-82
2022/02/21 01:17:35;;;;;;;5.72;1.65;;;9.70;98.00;;;;;;6181393;28;20051;-82
2022/02/21 01:20:37;;;;;;;4.80;0.82;;;9.80;97.30;;;;;;6180661;28;20444;-82
2022/02/21 01:23:40;;;;;;;5.00;0.80;;;9.80;96.60;;;;;;6179992;28;20042;-81
2022/02/21 01:26:42;;;;;;;3.40;1.17;;;9.80;96.40;;;;;;6182841;28;20057;-81
2022/02/21 01:29:55;;;;;;;4.88;0.80;;;9.80;96.10;;;;;;6180204;28;20047;-81
2022/02/21 01:33:13;;;;;;;1.17;0.65;;;9.70;96.10;;;;;;6179911;28;20053;-81
2022/02/21 01:36:16;;;;;;;4.50;0.80;;;9.80;95.90;;;;;;6178539;28;20065;-83
2022/02/21 01:39:20;;;;;;;11.20;1.15;;;9.80;96.00;;;;;;6181396;28;20429;-81
2022/02/21 01:42:22;;;;;;;6.53;1.33;;;9.80;95.20;;;;;;6197104;28;20106;-82
2022/02/21 01:45:30;;;;;;;1.65;0.70;;;9.80;95.10;;;;;;6185525;28;20417;-82
2022/02/21 01:48:34;;;;;;;4.03;1.33;;;9.90;95.50;;;;;;6189919;28;20078;-83
2022/02/21 01:51:38;;;;;;;5.65;0.95;;;10.00;94.50;;;;;;6170086;28;20058;-82
2022/02/21 01:54:41;;;;;;;5.15;0.90;;;10.20;94.50;;;;;;6189632;28;20416;-82
2022/02/21 01:57:44;;;;;;;4.05;0.70;;;10.10;94.50;;;;;;6190307;28;20051;-82
2022/02/21 02:00:47;;;;;;;2.20;0.88;;;10.10;95.00;;;;;;6191908;28;20065;-83
2022/02/21 02:03:50;;;;;;;2.22;0.40;;;10.00;94.40;;;;;;6187086;28;20049;-82
2022/02/21 02:06:54;;;;;;;3.28;0.40;;;10.00;94.00;;;;;;6189944;28;20097;-82
2022/02/21 02:09:59;;;;;;;1.73;0.50;;;10.10;93.70;;;;;;6190959;28;20054;-82
2022/02/21 02:13:03;;;;;;;3.58;0.90;;;10.20;93.60;;;;;;6192644;28;20066;-83
2022/02/21 02:16:06;;;;;;;4.38;0.95;;;10.30;93.50;;;;;;6188134;28;20058;-82
2022/02/21 02:19:11;;;;;;;3.63;0.60;;;10.30;93.20;;;;;;6186873;28;20055;-81
2022/02/21 02:22:16;;;;;;;3.50;0.60;;;10.40;93.20;;;;;;6187768;28;20122;-81
2022/02/21 02:25:20;;;;;;;3.67;0.95;;;10.40;92.90;;;;;;6188551;28;20086;-81
2022/02/21 02:28:22;;;;;;;6.38;0.60;;;10.40;93.00;;;;;;6188613;28;20055;-81
2022/02/21 02:31:24;;;;;;;4.60;0.40;;;10.40;93.20;;;;;;6188087;28;20057;-82
2022/02/21 02:38:24;;;;;;;2.15;0.60;;;10.00;94.40;;;;;;6179525;28;20047;-81
2022/02/21 02:41:30;;;;;;;2.80;0.45;;;9.80;95.30;;;;;;6190331;28;20066;-81
2022/02/21 02:44:36;;;;;;;2.80;0.45;;;9.70;96.10;;;;;;6189819;28;20529;-81
2022/02/21 02:47:48;;;;;;;5.00;0.70;;;9.80;96.90;;;;;;6180307;28;20061;-81
2022/02/21 02:51:02;;;;;;;3.00;0.60;;;9.70;97.90;;;;;;6191422;28;20054;-82
2022/02/21 02:54:06;;;;;;;8.52;0.85;;;9.70;97.90;;;;;;6194582;28;20043;-81
2022/02/21 02:57:10;;;;;;;3.20;0.60;;;9.60;98.20;;;;;;6197640;28;20054;-81
2022/02/21 03:00:17;;;;;;;1.80;0.50;;;9.70;98.70;;;;;;6195032;28;20046;-80
2022/02/21 03:03:19;;;;;;;1.75;0.30;;;9.30;95.70;;;;;;6194449;28;20042;-80
2022/02/21 03:06:24;;;;;;;1.50;0.40;;;8.50;95.80;;;;;;6193916;28;20050;-79
2022/02/21 03:09:27;;;;;;;2.03;0.30;;;8.00;96.70;;;;;;6195877;28;20047;-80
2022/02/21 03:12:32;;;;;;;1.27;0.10;;;7.70;97.40;;;;;;6192700;28;20054;-81
2022/02/21 03:15:36;;;;;;;1.35;0.70;;;7.50;97.70;;;;;;6189871;28;20503;-82
2022/02/21 03:22:24;;;;;;;1.20;0.30;;;7.10;98.00;;;;;;6173444;28;20046;-82
2022/02/21 03:25:26;;;;;;;5.88;0.88;;;7.00;98.40;;;;;;6193090;28;20054;-81
2022/02/21 03:28:29;;;;;;;3.00;0.63;;;6.90;98.40;;;;;;6192726;28;20463;-80
2022/02/21 03:31:31;;;;;;;9.52;1.13;;;6.80;98.70;;;;;;6192097;28;20423;-80
2022/02/21 03:34:33;;;;;;;5.88;1.35;;;6.80;98.90;;;;;;6190995;28;20066;-82
2022/02/21 03:37:35;;;;;;;4.07;0.50;;;6.80;99.00;;;;;;6193802;28;20183;-81
2022/02/21 03:40:38;;;;;;;1.73;0.30;;;6.80;98.90;;;;;;6193284;28;20126;-82
2022/02/21 03:43:41;;;;;;;2.08;0.57;;;6.70;98.60;;;;;;6191427;28;20420;-82
2022/02/21 03:46:45;;;;;;;2.97;0.57;;;6.50;98.80;;;;;;6192736;28;20047;-82
2022/02/21 03:49:52;;;;;;;5.72;0.88;;;6.50;99.00;;;;;;6190280;28;20046;-80
2022/02/21 03:52:55;;;;;;;4.70;0.80;;;6.50;98.60;;;;;;6191146;28;20105;-81
2022/02/21 03:55:57;;;;;;;0.93;0.52;;;6.50;98.30;;;;;;6188660;28;20126;-81
2022/02/21 03:59:00;;;;;;;5.05;0.55;;;6.50;98.20;;;;;;6191239;28;20055;-81
2022/02/21 04:02:02;;;;;;;8.60;1.52;;;6.60;98.20;;;;;;6190838;28;20046;-80
2022/02/21 04:05:04;;;;;;;7.32;1.00;;;6.60;97.80;;;;;;6190330;28;20126;-83
2022/02/21 04:08:07;;;;;;;5.47;1.67;;;6.70;97.70;;;;;;6191205;28;20129;-80
2022/02/21 04:11:09;;;;;;;5.05;0.55;;;6.70;97.50;;;;;;6192296;28;20050;-83
2022/02/21 04:14:12;;;;;;;14.15;1.08;;;6.70;97.60;;;;;;6192817;28;20050;-81
2022/02/21 04:17:13;;;;;;;15.45;1.60;;;6.70;97.20;;;;;;6191380;28;20057;-81
2022/02/21 04:20:17;;;;;;;5.18;1.00;;;6.70;97.50;;;;;;6193757;28;20047;-82
2022/02/21 04:23:19;;;;;;;4.70;0.70;;;6.80;97.10;;;;;;6190990;28;20115;-81
2022/02/21 04:26:21;;;;;;;6.15;0.85;;;6.80;97.50;;;;;;6192295;28;20051;-82
2022/02/21 04:29:24;;;;;;;4.10;0.75;;;6.90;97.00;;;;;;6192965;28;20063;-82
2022/02/21 04:32:26;;;;;;;7.07;0.85;;;6.80;96.80;;;;;;6191602;28;20074;-81
2022/02/21 04:35:29;;;;;;;7.35;0.70;;;6.80;96.90;;;;;;6191550;28;20444;-82
2022/02/21 04:38:31;;;;;;;6.05;0.60;;;6.70;96.60;;;;;;6191126;28;20506;-81
2022/02/21 04:41:34;;;;;;;6.93;0.73;;;6.80;95.90;;;;;;6192860;28;20058;-83
2022/02/21 04:44:38;;;;;;;14.50;1.30;;;6.70;96.30;;;;;;6191084;28;20454;-81
2022/02/21 04:47:40;;;;;;;7.38;1.08;;;6.90;97.50;;;;;;6190684;28;20145;-81
2022/02/21 04:50:42;;;;;;;6.90;2.13;;;6.90;97.10;;;;;;6207732;28;20056;-81
2022/02/21 04:53:44;;;;;;;8.40;1.02;;;6.90;95.40;;;;;;6214792;28;20132;-82
2022/02/21 04:56:46;;;;;;;10.27;1.10;;;6.80;95.00;;;;;;6215590;28;20520;-82
2022/02/21 04:59:53;;;;;;;6.55;1.00;;;6.80;94.90;;;;;;6215250;28;20050;-82
2022/02/21 05:06:57;;;;;;;7.28;0.63;;;6.80;94.80;;;;;;6199322;28;20050;-82
2022/02/21 05:17:24;;;;;;;7.28;1.60;;;6.90;94.70;;;;;;6215214;28;20046;-81
2022/02/21 05:31:54;;;;;;;7.10;1.52;;;7.10;93.80;;;;;;6196357;28;20054;-82
2022/02/21 05:34:56;;;;;;;5.65;1.60;;;7.10;93.80;;;;;;6214586;28;20058;-82
2022/02/21 05:37:58;;;;;;;20.25;2.47;;;7.10;93.20;;;;;;6216026;28;20042;-81
2022/02/21 05:41:01;;;;;;;12.88;1.70;;;7.20;92.40;;;;;;6215861;28;20046;-82
2022/02/21 05:44:03;;;;;;;17.02;3.58;;;7.10;92.60;;;;;;6214370;28;20046;-82
2022/02/21 05:47:07;;;;;;;5.30;2.55;;;7.20;92.70;;;;;;6215285;28;20054;-82
2022/02/21 05:50:09;;;;;;;6.45;1.92;;;7.20;91.70;;;;;;6214658;28;20130;-82
2022/02/21 05:53:11;;;;;;;14.45;1.70;;;7.20;91.80;;;;;;6213395;28;20131;-80
2022/02/21 05:56:13;;;;;;;9.48;1.85;;;7.20;91.30;;;;;;6209434;28;20050;-79
2022/02/21 05:59:15;;;;;;;15.77;2.20;;;7.10;90.60;;;;;;6212575;28;20050;-80
2022/02/21 06:02:18;;;;;;;9.27;3.28;;;7.10;91.30;;;;;;6211965;28;20114;-80
2022/02/21 06:05:20;;;;;;;12.57;2.03;;;7.10;90.70;;;;;;6210489;28;20054;-80
2022/02/21 06:08:23;;;;;;;14.00;3.05;;;7.00;89.80;;;;;;6212584;28;20050;-80
2022/02/21 06:11:24;;;;;;;16.45;1.40;;;7.00;89.00;;;;;;6207378;28;20050;-81
2022/02/21 06:14:26;;;;;;;13.05;1.90;;;7.00;90.30;;;;;;6212247;28;20101;-82
2022/02/21 06:17:29;;;;;;;7.20;1.58;;;6.80;88.50;;;;;;6209666;28;20046;-80
2022/02/21 06:20:31;;;;;;;9.98;2.22;;;6.70;88.10;;;;;;6208675;28;20074;-81
2022/02/21 06:23:33;;;;;;;14.27;2.35;;;6.70;88.30;;;;;;6211172;28;20113;-81
2022/02/21 06:26:34;;;;;;;10.43;1.88;;;6.70;86.90;;;;;;6210177;28;20047;-80
2022/02/21 06:29:37;;;;;;;13.15;2.35;;;6.70;87.30;;;;;;6212318;28;20068;-80
2022/02/21 06:32:41;;;;;;;5.72;1.17;;;6.60;86.00;;;;;;6212238;28;20081;-81
2022/02/21 06:35:43;;;;;;;6.30;1.23;;;6.50;86.00;;;;;;6210168;28;20074;-79
2022/02/21 06:38:44;;;;;;;9.20;2.00;;;6.60;86.80;;;;;;6212869;28;20416;-80
2022/02/21 06:41:46;;;;;;;16.80;1.60;;;6.60;85.30;;;;;;6212552;28;20408;-79
2022/02/21 06:44:48;;;;;;;12.43;2.58;;;6.50;84.80;;;;;;6212317;28;20046;-81
2022/02/21 06:47:51;;;;;;;13.68;2.45;;;6.50;85.60;;;;;;6210674;28;20066;-82
2022/02/21 06:50:54;;;;;;;10.10;1.38;;;6.50;85.10;;;;;;6215489;28;20053;-81
2022/02/21 06:53:56;;;;;;;12.40;2.35;;;6.50;85.60;;;;;;6213629;28;20459;-81
2022/02/21 06:56:58;;;;;;;17.75;1.83;;;6.50;85.40;;;;;;6213753;28;20050;-80
2022/02/21 07:00:00;;;;;;;17.15;1.98;;;6.40;84.80;;;;;;6212803;28;20078;-81
2022/02/21 07:03:03;;;;;;;19.05;3.42;;;6.50;85.20;;;;;;6212618;28;20053;-81
2022/02/21 07:06:05;;;;;;;10.43;1.42;;;6.50;84.60;;;;;;6211449;28;20074;-81
2022/02/21 07:09:08;;;;;;;10.45;2.17;;;6.60;84.10;;;;;;6211963;28;20067;-81
2022/02/21 07:12:10;;;;;;;13.48;3.55;;;6.60;84.60;;;;;;6209063;28;20042;-79
2022/02/21 07:15:11;;;;;;;8.88;1.40;;;6.80;84.90;;;;;;6209121;28;20038;-81
2022/02/21 07:18:15;;;;;;;19.52;2.58;;;6.90;83.80;;;;;;6208530;28;20074;-80
2022/02/21 07:21:17;;;;;;;21.30;2.13;;;7.00;83.50;;;;;;6210394;28;20081;-81
2022/02/21 07:24:19;;;;;;;13.63;1.55;;;7.10;82.90;;;;;;6212685;28;20047;-81
2022/02/21 07:27:21;;;;;;;11.25;3.40;;;7.20;82.10;;;;;;6212423;28;20133;-80
2022/02/21 07:30:26;;;;;;;9.07;1.40;;;7.40;81.40;;;;;;6212246;28;20053;-80
2022/02/21 07:33:29;;;;;;;13.75;2.10;;;7.50;81.30;;;;;;6214967;28;20050;-81
2022/02/21 07:36:31;;;;;;;18.00;2.17;;;7.70;81.60;;;;;;6201554;28;20095;-80
2022/02/21 07:39:33;;;;;;;14.75;1.60;;;7.90;81.40;;;;;;6202311;28;20108;-80
2022/02/21 07:42:35;;;;;;;17.10;1.98;;;7.90;79.60;;;;;;6202693;28;20423;-80
2022/02/21 07:45:37;;;;;;;9.95;1.83;;;8.00;80.00;;;;;;6219382;22;20043;-83
2022/02/21 07:48:40;;;;;;;10.75;1.95;;;7.90;80.00;;;;;;6179992;28;20070;-83
2022/02/21 07:51:42;;;;;;;14.77;2.72;;;7.80;79.20;;;;;;6179311;28;20042;-82
2022/02/21 07:54:45;;;;;;;11.30;1.83;;;7.80;79.10;;;;;;6178396;28;20133;-83
2022/02/21 07:57:47;;;;;;;22.60;2.40;;;7.80;79.90;;;;;;6178433;28;20046;-82
2022/02/21 08:00:48;;;;;;;17.20;1.80;;;7.80;78.80;;;;;;6178848;28;20059;-83
2022/02/21 08:03:51;;;;;;;10.85;2.92;;;7.90;79.30;;;;;;6178583;28;20158;-83
2022/02/21 08:06:53;;;;;;;7.63;1.73;;;8.10;79.40;;;;;;6178103;28;20047;-83
2022/02/21 08:09:55;;;;;;;13.05;2.22;;;8.30;78.20;;;;;;6180631;28;20043;-83
2022/02/21 08:12:57;;;;;;;26.67;1.63;;;8.60;77.10;;;;;;6155658;28;20065;-84
2022/02/21 08:15:59;;;;;;;9.98;1.70;;;8.80;76.80;;;;;;6175013;28;20122;-83
2022/02/21 08:19:02;;;;;;;11.63;1.58;;;8.70;75.90;;;;;;6189244;28;20054;-82
2022/02/21 08:22:04;;;;;;;12.45;1.50;;;8.60;76.70;;;;;;6171462;28;20765;-82
2022/02/21 08:25:07;;;;;;;12.63;2.70;;;8.50;77.10;;;;;;6178396;28;20631;-83
2022/02/21 08:28:09;;;;;;;11.90;1.50;;;8.40;77.50;;;;;;6178267;28;20061;-83
2022/02/21 08:31:11;;;;;;;8.73;1.80;;;8.30;77.00;;;;;;6178659;28;20050;-83
2022/02/21 08:34:14;;;;;;;12.68;1.60;;;8.20;78.30;;;;;;6179005;28;20424;-84
2022/02/21 08:37:16;;;;;;;10.30;1.35;;;8.20;78.60;;;;;;6179869;28;20043;-83
2022/02/21 08:40:21;;;;;;;11.85;1.73;;;8.30;78.40;;;;;;6180746;28;20047;-83
2022/02/21 08:43:25;;;;;;;19.20;2.28;;;8.40;76.80;;;;;;6179814;28;20058;-84
2022/02/21 08:46:27;;;;;;;16.70;2.08;;;8.40;76.70;;;;;;6186858;28;20575;-83
2022/02/21 08:49:30;;;;;;;6.20;1.05;;;8.30;77.50;;;;;;6195885;28;20060;-82
2022/02/21 08:52:32;;;;;;;6.80;1.45;;;8.30;75.80;;;;;;6203041;28;20054;-84
2022/02/21 08:55:34;;;;;;;5.93;1.20;;;8.40;76.40;;;;;;6203818;28;20050;-83
2022/02/21 08:58:36;;;;;;;7.93;1.10;;;8.30;75.30;;;;;;6203828;28;20046;-83
2022/02/21 09:01:42;;;;;;;6.35;0.77;;;8.40;75.80;;;;;;6203878;28;20055;-83
2022/02/21 09:04:45;;;;;;;6.68;0.95;;;8.40;75.40;;;;;;6204946;28;20137;-83
2022/02/21 09:07:47;;;;;;;2.10;0.55;;;8.50;75.40;;;;;;6202255;28;20524;-82
2022/02/21 09:10:51;;;;;;;3.45;0.50;;;8.30;78.10;;;;;;6201925;28;20069;-86
2022/02/21 09:13:53;;;;;;;6.95;0.90;;;8.30;80.50;;;;;;6200639;28;20056;-83
2022/02/21 09:16:54;;;;;;;8.27;0.88;;;8.20;81.10;;;;;;6197090;28;20129;-82
2022/02/21 09:19:58;;;;;;;6.35;0.93;;;8.00;81.50;;;;;;6195007;28;20419;-82
2022/02/21 09:23:00;;;;;;;2.22;0.75;;;8.00;83.60;;;;;;6201394;28;20478;-81
2022/02/21 09:26:01;;;;;;;6.20;0.70;;;8.40;83.80;;;;;;6201099;28;20078;-83
2022/02/21 09:29:03;;;;;;;6.00;1.30;;;9.10;80.50;;;;;;6202985;28;20050;-82
2022/02/21 09:32:06;;;;;;;6.20;1.60;;;9.20;79.60;;;;;;6189998;28;20591;-81
2022/02/21 09:35:09;;;;;;;4.05;1.10;;;9.20;78.70;;;;;;6176662;28;20158;-83
2022/02/21 09:38:11;;;;;;;7.15;1.83;;;9.00;78.80;;;;;;6177257;28;20106;-82
2022/02/21 09:41:13;;;;;;;15.25;1.30;;;9.00;80.30;;;;;;6177740;28;20229;-82
2022/02/21 09:44:15;;;;;;;5.32;1.00;;;9.00;78.50;;;;;;6175896;28;20073;-82
2022/02/21 09:47:18;;;;;;;9.93;2.53;;;8.80;78.70;;;;;;6183719;28;20397;-82
2022/02/21 09:50:21;;;;;;;20.52;2.42;;;8.90;80.20;;;;;;6197481;28;20127;-82
2022/02/21 09:53:23;;;;;;;9.88;3.08;;;9.10;79.40;;;;;;6201407;28;20050;-82
2022/02/21 09:56:25;;;;;;;8.38;2.17;;;9.00;79.30;;;;;;6199737;28;20042;-82
2022/02/21 09:59:27;;;;;;;7.90;1.92;;;8.80;80.40;;;;;;6199743;28;20128;-83
2022/02/21 10:02:33;;;;;;;9.88;1.58;;;8.60;82.70;;;;;;6199781;28;20587;-82
2022/02/21 10:05:36;;;;;;;10.70;2.65;;;8.30;84.30;;;;;;6199531;28;20058;-82
2022/02/21 10:08:37;;;;;;;7.30;2.58;;;8.00;86.90;;;;;;6200799;28;20046;-82
2022/02/21 10:11:42;;;;;;;6.28;1.45;;;8.00;87.50;;;;;;6200270;28;20086;-82
2022/02/21 10:14:44;;;;;;;13.82;1.67;;;7.80;87.50;;;;;;6199149;28;20129;-82
2022/02/21 10:17:47;;;;;;;10.30;1.48;;;7.90;89.00;;;;;;6188501;28;20497;-82
2022/02/21 10:20:55;;;;;;;14.05;1.90;;;7.90;89.30;;;;;;6200501;28;20517;-83
2022/02/21 10:23:57;;;;;;;17.60;1.80;;;7.90;88.80;;;;;;6199088;28;20050;-83
2022/02/21 10:27:07;;;;;;;12.00;1.77;;;7.80;89.10;;;;;;6199076;28;20042;-83
2022/02/21 10:30:16;;;;;;;9.20;1.83;;;8.00;90.00;;;;;;6195396;28;20178;-82
2022/02/21 10:33:17;;;;;;;13.57;2.33;;;8.30;89.70;;;;;;6200080;28;20737;-82
2022/02/21 10:36:33;;;;;;;7.25;2.00;;;8.50;88.90;;;;;;6199085;28;20423;-83
2022/02/21 10:39:35;;;;;;;12.75;2.22;;;8.60;87.10;;;;;;6199078;28;20053;-82
2022/02/21 10:42:37;;;;;;;9.98;1.38;;;8.60;85.80;;;;;;6198970;28;20046;-82
2022/02/21 10:45:40;;;;;;;8.45;1.30;;;8.60;84.70;;;;;;6194795;28;20054;-82
2022/02/21 10:48:44;;;;;;;6.53;0.90;;;8.60;83.10;;;;;;6182039;28;20501;-82
2022/02/21 10:51:48;;;;;;;14.15;2.00;;;8.80;82.30;;;;;;6174055;28;20394;-82
2022/02/21 10:54:50;;;;;;;3.72;1.67;;;9.10;79.50;;;;;;6189361;28;20091;-82
2022/02/21 10:57:53;;;;;;;8.43;0.88;;;9.20;75.30;;;;;;6202521;28;20460;-82
2022/02/21 11:00:57;;;;;;;6.00;0.60;;;9.10;75.00;;;;;;6203266;28;20050;-82
2022/02/21 11:04:01;;;;;;;5.25;1.20;;;9.20;73.70;;;;;;6203106;28;20424;-82
2022/02/21 11:07:05;;;;;;;13.00;0.98;;;9.30;72.80;;;;;;6202115;28;20043;-82
2022/02/21 11:10:08;;;;;;;7.85;0.98;;;9.20;72.80;;;;;;6203175;28;20092;-82
2022/02/21 11:13:13;;;;;;;6.22;0.98;;;9.00;72.90;;;;;;6203311;28;20064;-82
2022/02/21 11:16:15;;;;;;;8.25;0.93;;;9.00;73.30;;;;;;6199790;28;20054;-82
2022/02/21 11:19:18;;;;;;;7.35;1.30;;;8.90;73.20;;;;;;6194697;28;20058;-81
2022/02/21 11:22:22;;;;;;;5.32;0.75;;;8.80;72.80;;;;;;6202392;28;20515;-81
2022/02/21 11:25:36;;;;;;;7.18;0.95;;;8.60;72.20;;;;;;6202556;28;20415;-82
2022/02/21 11:28:45;;;;;;;3.45;1.05;;;8.60;71.60;;;;;;6203271;28;20074;-81
2022/02/21 11:31:47;;;;;;;5.93;0.95;;;8.70;71.90;;;;;;6202614;28;20058;-82
2022/02/21 11:35:11;;;;;;;4.90;1.40;;;8.80;72.50;;;;;;6202094;28;20050;-82
2022/02/21 11:38:20;;;;;;;5.68;1.85;;;8.80;71.00;;;;;;6202174;28;20050;-82
2022/02/21 11:41:31;;;;;;;8.55;1.90;;;8.90;71.00;;;;;;6203438;28;20185;-81
2022/02/21 11:44:47;;;;;;;9.20;1.40;;;8.90;71.60;;;;;;6202539;28;20077;-81
2022/02/21 11:47:52;;;;;;;10.50;1.80;;;8.90;70.40;;;;;;6192986;28;20523;-82
2022/02/21 11:51:01;;;;;;;2.22;0.95;;;9.00;70.80;;;;;;6203603;28;20057;-81
2022/02/21 11:54:43;;;;;;;4.18;1.13;;;8.90;69.10;;;;;;6203407;28;20046;-81
2022/02/21 11:57:45;;;;;;;4.82;0.93;;;8.90;68.80;;;;;;6203566;28;20058;-79
2022/02/21 12:00:47;;;;;;;12.82;1.70;;;8.90;68.40;;;;;;6202729;28;20582;-81
2022/02/21 12:04:18;;;;;;;3.60;1.00;;;8.80;67.60;;;;;;6203012;28;20068;-80
2022/02/21 12:07:22;;;;;;;15.20;2.30;;;8.90;69.00;;;;;;6201975;28;20098;-81
2022/02/21 12:10:25;;;;;;;5.30;0.82;;;8.90;69.30;;;;;;6202219;28;20688;-81
2022/02/21 12:13:28;;;;;;;5.15;1.40;;;8.80;70.90;;;;;;6202727;28;20101;-80
2022/02/21 12:16:31;;;;;;;8.98;1.48;;;8.80;74.30;;;;;;6199247;28;20776;-81
2022/02/21 12:19:35;;;;;;;11.13;1.23;;;8.70;73.90;;;;;;6193614;28;20057;-80
2022/02/21 12:22:36;;;;;;;8.70;1.13;;;8.70;75.40;;;;;;6202002;28;20147;-80
2022/02/21 12:25:40;;;;;;;9.73;0.90;;;8.60;75.50;;;;;;6189266;28;20062;-81
2022/02/21 12:28:43;;;;;;;5.68;1.55;;;8.70;74.00;;;;;;6178152;28;20070;-82
2022/02/21 12:31:55;;;;;;;8.93;1.13;;;8.70;73.40;;;;;;6177957;28;20452;-81
2022/02/21 12:34:57;;;;;;;6.43;1.08;;;8.70;72.70;;;;;;6177493;28;20059;-81
2022/02/21 12:37:59;;;;;;;3.90;1.02;;;8.70;71.20;;;;;;6177823;28;20415;-81
2022/02/21 12:41:05;;;;;;;4.82;1.45;;;8.80;71.60;;;;;;6178931;28;20133;-82
2022/02/21 12:44:08;;;;;;;5.10;1.35;;;8.80;71.60;;;;;;6181216;28;20152;-81
2022/02/21 12:47:10;;;;;;;8.20;1.25;;;8.90;72.10;;;;;;6187765;28;20046;-82
2022/02/21 12:50:12;;;;;;;5.40;1.05;;;8.90;72.60;;;;;;6199307;28;20051;-83
2022/02/21 12:53:17;;;;;;;7.45;1.90;;;8.90;73.60;;;;;;6204219;28;20058;-81
2022/02/21 12:56:21;;;;;;;6.88;1.40;;;8.90;74.10;;;;;;6203011;28;20420;-82
2022/02/21 12:59:25;;;;;;;5.78;1.65;;;8.70;72.50;;;;;;6203834;28;20054;-84
2022/02/21 13:02:27;;;;;;;4.00;0.77;;;8.70;75.00;;;;;;6203790;28;20105;-82
2022/02/21 13:05:28;;;;;;;5.57;0.77;;;8.60;72.60;;;;;;6203884;28;20435;-83
2022/02/21 13:08:38;;;;;;;6.90;1.60;;;8.70;74.70;;;;;;6203297;28;20042;-79
2022/02/21 13:11:42;;;;;;;1.95;1.00;;;8.70;71.80;;;;;;6227104;28;20038;-82
2022/02/21 13:14:44;;;;;;;7.65;0.75;;;8.80;71.50;;;;;;6218241;28;20047;-81
2022/02/21 13:17:55;;;;;;;3.15;0.75;;;8.90;72.70;;;;;;6195584;28;20155;-81
2022/02/21 13:21:00;;;;;;;9.95;1.25;;;9.10;72.10;;;;;;6182593;28;20050;-81
2022/02/21 13:24:05;;;;;;;5.40;1.90;;;9.10;71.10;;;;;;6179732;28;20050;-82
2022/02/21 13:27:09;;;;;;;4.20;0.70;;;9.00;71.10;;;;;;6179344;28;20050;-84
2022/02/21 13:30:17;;;;;;;13.60;6.90;;;8.90;70.60;;;;;;6178728;28;20066;-80
2022/02/21 13:33:18;;;;;;;2.58;0.95;;;8.90;72.20;;;;;;6182937;28;20075;-82
2022/02/21 13:36:26;;;;;;;3.67;1.90;;;9.00;72.80;;;;;;6180107;28;20051;-81
2022/02/21 13:39:30;;;;;;;10.45;2.50;;;8.90;73.30;;;;;;6179677;28;20049;-81
2022/02/21 13:42:36;;;;;;;11.45;1.50;;;8.90;73.00;;;;;;6179284;28;20047;-83
2022/02/21 13:45:38;;;;;;;7.75;1.83;;;8.90;72.90;;;;;;6204177;22;20174;-81
2022/02/21 13:48:45;;;;;;;7.07;1.00;;;8.90;73.10;;;;;;6199472;28;20069;-81
2022/02/21 13:51:46;;;;;;;7.63;1.38;;;9.00;72.60;;;;;;6210374;28;20050;-76
2022/02/21 13:54:48;;;;;;;7.80;1.08;;;9.10;72.60;;;;;;6218348;28;20076;-82
2022/02/21 13:58:00;;;;;;;5.18;1.08;;;9.20;71.60;;;;;;6204720;28;20113;-82
2022/02/21 14:01:11;;;;;;;7.05;1.13;;;9.20;70.80;;;;;;6204755;28;20074;-82
2022/02/21 14:04:20;;;;;;;8.35;1.73;;;9.30;70.80;;;;;;6203602;28;20073;-81
2022/02/21 14:07:22;;;;;;;4.70;1.02;;;9.30;70.50;;;;;;6204496;28;20042;-80
2022/02/21 14:10:24;;;;;;;7.68;1.40;;;9.40;70.50;;;;;;6204231;28;20054;-80
2022/02/21 14:13:27;;;;;;;9.95;2.53;;;9.30;70.90;;;;;;6205037;28;20057;-81
2022/02/21 14:16:29;;;;;;;4.28;1.25;;;9.30;71.70;;;;;;6196309;28;20051;-81
2022/02/21 14:19:31;;;;;;;3.47;1.08;;;9.20;72.50;;;;;;6196498;28;20054;-81
2022/02/21 14:22:32;;;;;;;8.85;1.48;;;9.20;73.60;;;;;;6204391;28;20046;-80
2022/02/21 14:25:34;;;;;;;8.45;1.00;;;9.20;74.30;;;;;;6204522;28;20080;-80
2022/02/21 14:28:37;;;;;;;4.55;0.63;;;9.10;75.70;;;;;;6185893;28;20043;-81
2022/02/21 14:31:39;;;;;;;5.43;0.88;;;9.00;76.70;;;;;;6184447;28;20130;-82
2022/02/21 14:34:42;;;;;;;5.35;0.82;;;9.00;76.40;;;;;;6185572;28;20508;-82
2022/02/21 14:37:44;;;;;;;5.93;1.20;;;9.00;76.30;;;;;;6185283;28;20058;-80
2022/02/21 14:40:46;;;;;;;3.75;1.20;;;9.10;75.80;;;;;;6184847;28;20059;-82
2022/02/21 14:43:49;;;;;;;4.93;2.08;;;9.20;76.00;;;;;;6182395;28;20624;-81
2022/02/21 14:46:51;;;;;;;18.27;6.72;;;9.20;75.10;;;;;;6191020;28;20539;-81
2022/02/21 14:49:53;;;;;;;5.55;1.25;;;9.20;75.00;;;;;;6200820;28;20522;-79
2022/02/21 14:52:54;;;;;;;6.13;0.73;;;9.10;76.00;;;;;;6208794;28;20050;-82
2022/02/21 14:55:56;;;;;;;5.97;0.85;;;9.00;76.80;;;;;;6209125;28;20050;-82
2022/02/21 14:59:02;;;;;;;12.70;1.95;;;9.00;77.00;;;;;;6209722;28;20054;-82
2022/02/21 15:02:04;;;;;;;14.95;5.72;;;8.90;77.00;;;;;;6209159;28;20046;-81
2022/02/21 15:05:07;;;;;;;9.05;1.65;;;8.90;77.90;;;;;;6210064;28;20060;-81
2022/02/21 15:08:09;;;;;;;6.43;2.60;;;8.80;77.70;;;;;;6210413;28;20112;-82
2022/02/21 15:11:11;;;;;;;2.80;1.20;;;8.80;78.10;;;;;;6210334;28;20050;-82
2022/02/21 15:14:14;;;;;;;4.78;2.83;;;8.80;78.70;;;;;;6210553;28;20125;-81
2022/02/21 15:17:16;;;;;;;5.53;1.35;;;8.80;79.70;;;;;;6205696;28;20054;-81
2022/02/21 15:20:21;;;;;;;6.25;1.90;;;8.80;81.40;;;;;;6199901;28;20050;-80
2022/02/21 15:23:23;;;;;;;5.85;1.38;;;8.80;83.00;;;;;;6208006;28;20054;-81
2022/02/21 15:26:25;;;;;;;5.50;1.73;;;8.80;84.40;;;;;;6205067;28;20635;-80
2022/02/21 15:29:28;;;;;;;7.00;1.08;;;8.70;85.20;;;;;;6208677;28;20054;-81
2022/02/21 15:32:30;;;;;;;5.53;0.70;;;8.20;88.40;;;;;;6187466;28;20547;-81
2022/02/21 15:35:32;;;;;;;5.10;0.85;;;7.90;91.00;;;;;;6183123;28;20106;-81
2022/02/21 15:38:35;;;;;;;10.75;1.38;;;7.60;91.90;;;;;;6184374;28;20837;-81
2022/02/21 15:41:37;;;;;;;6.80;1.27;;;7.50;92.10;;;;;;6184488;28;20054;-80
2022/02/21 15:44:40;;;;;;;9.95;1.20;;;7.50;94.00;;;;;;6183680;28;20547;-80
2022/02/21 15:47:42;;;;;;;12.48;2.33;;;7.40;93.30;;;;;;6192632;28;20150;-81
2022/02/21 15:54:01;;;;;;;5.18;0.82;;;7.40;93.20;;;;;;6208590;28;20042;-83
2022/02/21 15:57:03;;;;;;;2.85;0.75;;;7.40;93.50;;;;;;6210174;28;20054;-84
2022/02/21 16:00:08;;;;;;;9.75;1.23;;;7.50;94.80;;;;;;6208639;28;20117;-81
2022/02/21 16:03:10;;;;;;;6.63;0.70;;;7.50;94.30;;;;;;6208385;28;20112;-81
2022/02/21 16:06:12;;;;;;;19.75;1.65;;;7.50;94.90;;;;;;6207954;28;20102;-80
2022/02/21 16:09:13;;;;;;;7.18;2.05;;;7.50;95.00;;;;;;6211664;28;20138;-78
2022/02/21 16:12:15;;;;;;;7.35;1.27;;;7.50;95.40;;;;;;6211096;28;20074;-82
2022/02/21 16:15:22;;;;;;;4.32;0.88;;;7.50;94.30;;;;;;6187324;28;20050;-83
2022/02/21 16:18:25;;;;;;;1.85;0.75;;;7.50;94.20;;;;;;6196328;28;20134;-82
2022/02/21 16:21:31;;;;;;;13.55;1.60;;;7.50;95.70;;;;;;6207333;28;20496;-82
2022/02/21 16:24:33;;;;;;;9.05;1.38;;;7.50;94.60;;;;;;6152228;28;20457;-83
2022/02/21 16:27:35;;;;;;;4.28;1.23;;;7.40;94.90;;;;;;6154287;28;20062;-81
2022/02/21 16:30:38;;;;;;;3.47;0.95;;;7.20;95.00;;;;;;6168007;28;20049;-82
2022/02/21 16:33:40;;;;;;;0.00;0.00;;;7.30;95.50;;;;;;6164375;28;20089;-82
2022/02/21 16:40:02;;;;;;;0.00;0.00;;;7.30;96.70;;;;;;6179575;28;20078;-83